sensor_id;sensor_type;location;lat;lon;timestamp;P1;durP1;ratioP1;P2;durP2;ratioP2
26512;SDS011;14186;53.822;10.152;2023-07-20T00:01:53;1.92;;;1.42;;
26512;SDS011;14186;53.822;10.152;2023-07-20T00:06:53;2.95;;;1.50;;
26512;SDS011;14186;53.822;10.152;2023-07-20T00:11:54;5.25;;;1.80;;
26512;SDS011;14186;53.822;10.152;2023-07-20T00:16:55;2.63;;;1.45;;
26512;SDS011;14186;53.822;10.152;2023-07-20T00:21:56;2.15;;;1.60;;
26512;SDS011;14186;53.822;10.152;2023-07-20T00:26:57;4.75;;;1.60;;
26512;SDS011;14186;53.822;10.152;2023-07-20T00:31:58;2.95;;;1.63;;
26512;SDS011;14186;53.822;10.152;2023-07-20T00:36:58;2.70;;;1.60;;
26512;SDS011;14186;53.822;10.152;2023-07-20T00:41:59;4.43;;;2.13;;
26512;SDS011;14186;53.822;10.152;2023-07-20T00:47:01;3.20;;;1.70;;
26512;SDS011;14186;53.822;10.152;2023-07-20T00:52:01;4.57;;;2.30;;
26512;SDS011;14186;53.822;10.152;2023-07-20T00:57:04;5.68;;;2.72;;
26512;SDS011;14186;53.822;10.152;2023-07-20T01:02:07;5.13;;;2.50;;
26512;SDS011;14186;53.822;10.152;2023-07-20T01:07:12;6.47;;;3.42;;
26512;SDS011;14186;53.822;10.152;2023-07-20T01:12:17;5.28;;;2.83;;
26512;SDS011;14186;53.822;10.152;2023-07-20T01:17:19;6.55;;;3.42;;
26512;SDS011;14186;53.822;10.152;2023-07-20T01:22:21;5.50;;;3.60;;
26512;SDS011;14186;53.822;10.152;2023-07-20T01:27:36;5.95;;;3.53;;
26512;SDS011;14186;53.822;10.152;2023-07-20T01:32:40;5.47;;;3.30;;
26512;SDS011;14186;53.822;10.152;2023-07-20T01:37:40;6.05;;;3.45;;
26512;SDS011;14186;53.822;10.152;2023-07-20T01:42:43;5.72;;;3.38;;
26512;SDS011;14186;53.822;10.152;2023-07-20T01:47:44;4.22;;;3.22;;
26512;SDS011;14186;53.822;10.152;2023-07-20T01:52:45;7.07;;;4.45;;
26512;SDS011;14186;53.822;10.152;2023-07-20T01:57:45;9.45;;;3.85;;
26512;SDS011;14186;53.822;10.152;2023-07-20T02:02:46;6.68;;;4.22;;
26512;SDS011;14186;53.822;10.152;2023-07-20T02:07:46;8.38;;;5.15;;
26512;SDS011;14186;53.822;10.152;2023-07-20T02:12:47;7.50;;;4.57;;
26512;SDS011;14186;53.822;10.152;2023-07-20T02:17:48;9.57;;;5.33;;
26512;SDS011;14186;53.822;10.152;2023-07-20T02:22:49;8.07;;;5.53;;
26512;SDS011;14186;53.822;10.152;2023-07-20T02:27:49;8.80;;;5.35;;
26512;SDS011;14186;53.822;10.152;2023-07-20T02:32:50;8.35;;;4.72;;
26512;SDS011;14186;53.822;10.152;2023-07-20T02:37:50;9.00;;;4.97;;
26512;SDS011;14186;53.822;10.152;2023-07-20T02:42:51;10.57;;;5.60;;
26512;SDS011;14186;53.822;10.152;2023-07-20T02:47:52;7.47;;;4.80;;
26512;SDS011;14186;53.822;10.152;2023-07-20T02:52:52;6.35;;;4.78;;
26512;SDS011;14186;53.822;10.152;2023-07-20T02:57:52;7.93;;;4.80;;
26512;SDS011;14186;53.822;10.152;2023-07-20T03:02:54;7.93;;;4.22;;
26512;SDS011;14186;53.822;10.152;2023-07-20T03:07:54;8.27;;;4.32;;
26512;SDS011;14186;53.822;10.152;2023-07-20T03:12:55;10.10;;;4.40;;
26512;SDS011;14186;53.822;10.152;2023-07-20T03:17:56;8.55;;;4.80;;
26512;SDS011;14186;53.822;10.152;2023-07-20T03:22:56;9.38;;;5.20;;
26512;SDS011;14186;53.822;10.152;2023-07-20T03:27:57;6.78;;;4.25;;
26512;SDS011;14186;53.822;10.152;2023-07-20T03:32:58;7.25;;;4.60;;
26512;SDS011;14186;53.822;10.152;2023-07-20T03:37:58;10.18;;;5.97;;
26512;SDS011;14186;53.822;10.152;2023-07-20T03:42:59;13.40;;;5.75;;
26512;SDS011;14186;53.822;10.152;2023-07-20T03:48:00;10.85;;;5.65;;
26512;SDS011;14186;53.822;10.152;2023-07-20T03:53:00;8.43;;;5.72;;
26512;SDS011;14186;53.822;10.152;2023-07-20T03:58:01;12.40;;;6.65;;
26512;SDS011;14186;53.822;10.152;2023-07-20T04:03:02;9.43;;;6.50;;
26512;SDS011;14186;53.822;10.152;2023-07-20T04:08:03;10.93;;;7.38;;
26512;SDS011;14186;53.822;10.152;2023-07-20T04:13:03;12.00;;;8.60;;
26512;SDS011;14186;53.822;10.152;2023-07-20T04:18:05;8.18;;;6.75;;
26512;SDS011;14186;53.822;10.152;2023-07-20T04:23:05;10.20;;;7.22;;
26512;SDS011;14186;53.822;10.152;2023-07-20T04:28:05;10.40;;;7.75;;
26512;SDS011;14186;53.822;10.152;2023-07-20T04:33:07;12.88;;;8.73;;
26512;SDS011;14186;53.822;10.152;2023-07-20T04:38:07;10.63;;;7.93;;
26512;SDS011;14186;53.822;10.152;2023-07-20T04:43:07;10.50;;;7.90;;
26512;SDS011;14186;53.822;10.152;2023-07-20T04:48:10;8.07;;;6.45;;
26512;SDS011;14186;53.822;10.152;2023-07-20T04:53:10;8.55;;;6.38;;
26512;SDS011;14186;53.822;10.152;2023-07-20T04:58:10;7.60;;;5.30;;
26512;SDS011;14186;53.822;10.152;2023-07-20T05:03:12;8.07;;;5.88;;
26512;SDS011;14186;53.822;10.152;2023-07-20T05:08:12;6.82;;;5.32;;
26512;SDS011;14186;53.822;10.152;2023-07-20T05:13:12;7.15;;;4.40;;
26512;SDS011;14186;53.822;10.152;2023-07-20T05:18:14;6.47;;;5.60;;
26512;SDS011;14186;53.822;10.152;2023-07-20T05:23:14;7.35;;;4.90;;
26512;SDS011;14186;53.822;10.152;2023-07-20T05:28:14;4.82;;;4.13;;
26512;SDS011;14186;53.822;10.152;2023-07-20T05:33:16;5.68;;;4.00;;
26512;SDS011;14186;53.822;10.152;2023-07-20T05:38:16;5.35;;;3.75;;
26512;SDS011;14186;53.822;10.152;2023-07-20T05:43:16;5.03;;;3.30;;
26512;SDS011;14186;53.822;10.152;2023-07-20T05:48:18;3.55;;;2.50;;
26512;SDS011;14186;53.822;10.152;2023-07-20T05:53:18;2.05;;;1.48;;
26512;SDS011;14186;53.822;10.152;2023-07-20T05:58:18;3.83;;;1.50;;
26512;SDS011;14186;53.822;10.152;2023-07-20T06:03:20;2.92;;;1.13;;
26512;SDS011;14186;53.822;10.152;2023-07-20T06:08:20;2.72;;;1.25;;
26512;SDS011;14186;53.822;10.152;2023-07-20T06:13:21;5.03;;;1.50;;
26512;SDS011;14186;53.822;10.152;2023-07-20T06:18:23;1.15;;;0.93;;
26512;SDS011;14186;53.822;10.152;2023-07-20T06:23:23;1.98;;;1.10;;
26512;SDS011;14186;53.822;10.152;2023-07-20T06:28:23;3.40;;;0.98;;
26512;SDS011;14186;53.822;10.152;2023-07-20T06:33:25;2.22;;;0.63;;
26512;SDS011;14186;53.822;10.152;2023-07-20T06:38:25;2.58;;;1.00;;
26512;SDS011;14186;53.822;10.152;2023-07-20T06:43:25;3.88;;;0.65;;
26512;SDS011;14186;53.822;10.152;2023-07-20T06:48:27;2.70;;;0.50;;
26512;SDS011;14186;53.822;10.152;2023-07-20T06:53:27;4.03;;;0.70;;
26512;SDS011;14186;53.822;10.152;2023-07-20T06:58:27;2.33;;;0.55;;
26512;SDS011;14186;53.822;10.152;2023-07-20T07:03:29;2.28;;;0.80;;
26512;SDS011;14186;53.822;10.152;2023-07-20T07:08:29;2.10;;;0.98;;
26512;SDS011;14186;53.822;10.152;2023-07-20T07:13:29;3.92;;;0.88;;
26512;SDS011;14186;53.822;10.152;2023-07-20T07:18:31;2.47;;;0.75;;
26512;SDS011;14186;53.822;10.152;2023-07-20T07:23:31;3.67;;;1.15;;
26512;SDS011;14186;53.822;10.152;2023-07-20T07:28:31;5.57;;;1.00;;
26512;SDS011;14186;53.822;10.152;2023-07-20T07:33:33;5.68;;;1.15;;
26512;SDS011;14186;53.822;10.152;2023-07-20T07:38:33;5.53;;;1.20;;
26512;SDS011;14186;53.822;10.152;2023-07-20T07:43:33;3.90;;;1.58;;
26512;SDS011;14186;53.822;10.152;2023-07-20T07:48:35;4.22;;;1.92;;
26512;SDS011;14186;53.822;10.152;2023-07-20T07:53:35;6.10;;;1.30;;
26512;SDS011;14186;53.822;10.152;2023-07-20T07:58:35;4.25;;;1.92;;
26512;SDS011;14186;53.822;10.152;2023-07-20T08:03:36;4.25;;;1.30;;
26512;SDS011;14186;53.822;10.152;2023-07-20T08:08:37;5.75;;;1.08;;
26512;SDS011;14186;53.822;10.152;2023-07-20T08:13:37;3.22;;;1.33;;
26512;SDS011;14186;53.822;10.152;2023-07-20T08:18:38;4.20;;;1.10;;
26512;SDS011;14186;53.822;10.152;2023-07-20T08:23:39;3.38;;;1.30;;
26512;SDS011;14186;53.822;10.152;2023-07-20T08:28:39;6.40;;;1.77;;
26512;SDS011;14186;53.822;10.152;2023-07-20T08:33:40;3.38;;;1.58;;
26512;SDS011;14186;53.822;10.152;2023-07-20T08:38:41;6.97;;;1.60;;
26512;SDS011;14186;53.822;10.152;2023-07-20T08:43:41;5.40;;;1.70;;
26512;SDS011;14186;53.822;10.152;2023-07-20T08:48:43;3.67;;;1.40;;
26512;SDS011;14186;53.822;10.152;2023-07-20T08:53:44;5.28;;;1.77;;
26512;SDS011;14186;53.822;10.152;2023-07-20T08:58:45;1.77;;;0.90;;
26512;SDS011;14186;53.822;10.152;2023-07-20T09:03:47;4.63;;;1.30;;
26512;SDS011;14186;53.822;10.152;2023-07-20T09:08:47;7.25;;;2.55;;
26512;SDS011;14186;53.822;10.152;2023-07-20T09:13:47;3.22;;;0.85;;
26512;SDS011;14186;53.822;10.152;2023-07-20T09:18:49;2.97;;;0.90;;
26512;SDS011;14186;53.822;10.152;2023-07-20T09:23:49;3.63;;;0.50;;
26512;SDS011;14186;53.822;10.152;2023-07-20T09:28:50;1.35;;;0.38;;
26512;SDS011;14186;53.822;10.152;2023-07-20T09:33:52;4.30;;;0.90;;
26512;SDS011;14186;53.822;10.152;2023-07-20T09:38:53;1.45;;;0.63;;
26512;SDS011;14186;53.822;10.152;2023-07-20T09:43:53;4.38;;;0.60;;
26512;SDS011;14186;53.822;10.152;2023-07-20T09:48:55;2.85;;;0.73;;
26512;SDS011;14186;53.822;10.152;2023-07-20T09:53:55;3.28;;;0.60;;
26512;SDS011;14186;53.822;10.152;2023-07-20T09:58:56;2.88;;;0.55;;
26512;SDS011;14186;53.822;10.152;2023-07-20T10:03:58;2.30;;;0.57;;
26512;SDS011;14186;53.822;10.152;2023-07-20T10:09:00;2.58;;;0.60;;
26512;SDS011;14186;53.822;10.152;2023-07-20T10:14:00;4.88;;;1.05;;
26512;SDS011;14186;53.822;10.152;2023-07-20T10:19:05;3.65;;;0.50;;
26512;SDS011;14186;53.822;10.152;2023-07-20T10:24:05;4.50;;;0.90;;
26512;SDS011;14186;53.822;10.152;2023-07-20T10:29:05;3.38;;;0.55;;
26512;SDS011;14186;53.822;10.152;2023-07-20T10:34:07;2.47;;;0.60;;
26512;SDS011;14186;53.822;10.152;2023-07-20T10:39:08;3.08;;;0.63;;
26512;SDS011;14186;53.822;10.152;2023-07-20T10:44:13;3.85;;;0.63;;
26512;SDS011;14186;53.822;10.152;2023-07-20T10:49:20;3.47;;;0.40;;
26512;SDS011;14186;53.822;10.152;2023-07-20T10:54:34;2.08;;;0.47;;
26512;SDS011;14186;53.822;10.152;2023-07-20T10:59:37;2.75;;;0.45;;
26512;SDS011;14186;53.822;10.152;2023-07-20T11:04:39;3.65;;;0.65;;
26512;SDS011;14186;53.822;10.152;2023-07-20T11:09:39;2.28;;;0.57;;
26512;SDS011;14186;53.822;10.152;2023-07-20T11:14:40;3.88;;;0.50;;
26512;SDS011;14186;53.822;10.152;2023-07-20T11:19:42;2.83;;;0.38;;
26512;SDS011;14186;53.822;10.152;2023-07-20T11:24:42;1.85;;;0.40;;
26512;SDS011;14186;53.822;10.152;2023-07-20T11:29:42;3.33;;;0.50;;
26512;SDS011;14186;53.822;10.152;2023-07-20T11:34:44;1.40;;;0.30;;
26512;SDS011;14186;53.822;10.152;2023-07-20T11:39:46;3.83;;;0.47;;
26512;SDS011;14186;53.822;10.152;2023-07-20T11:44:46;5.20;;;0.65;;
26512;SDS011;14186;53.822;10.152;2023-07-20T11:49:52;2.25;;;0.63;;
26512;SDS011;14186;53.822;10.152;2023-07-20T11:54:52;1.88;;;0.45;;
26512;SDS011;14186;53.822;10.152;2023-07-20T11:59:53;2.92;;;0.45;;
26512;SDS011;14186;53.822;10.152;2023-07-20T12:04:55;3.30;;;0.50;;
26512;SDS011;14186;53.822;10.152;2023-07-20T12:10:05;4.70;;;0.80;;
26512;SDS011;14186;53.822;10.152;2023-07-20T12:15:13;2.28;;;1.10;;
26512;SDS011;14186;53.822;10.152;2023-07-20T12:20:24;3.38;;;0.80;;
26512;SDS011;14186;53.822;10.152;2023-07-20T12:25:32;5.53;;;0.70;;
26512;SDS011;14186;53.822;10.152;2023-07-20T12:30:32;1.50;;;0.50;;
26512;SDS011;14186;53.822;10.152;2023-07-20T12:35:33;2.53;;;0.35;;
26512;SDS011;14186;53.822;10.152;2023-07-20T12:40:34;2.25;;;0.40;;
26512;SDS011;14186;53.822;10.152;2023-07-20T12:45:34;2.13;;;0.50;;
26512;SDS011;14186;53.822;10.152;2023-07-20T12:50:36;2.00;;;0.47;;
26512;SDS011;14186;53.822;10.152;2023-07-20T12:55:37;2.85;;;0.63;;
26512;SDS011;14186;53.822;10.152;2023-07-20T13:00:37;1.73;;;0.50;;
26512;SDS011;14186;53.822;10.152;2023-07-20T13:05:38;1.52;;;0.38;;
26512;SDS011;14186;53.822;10.152;2023-07-20T13:10:39;3.63;;;0.77;;
26512;SDS011;14186;53.822;10.152;2023-07-20T13:15:40;2.55;;;0.60;;
26512;SDS011;14186;53.822;10.152;2023-07-20T13:20:42;2.28;;;0.70;;
26512;SDS011;14186;53.822;10.152;2023-07-20T13:25:42;3.67;;;0.40;;
26512;SDS011;14186;53.822;10.152;2023-07-20T13:30:42;1.98;;;0.55;;
26512;SDS011;14186;53.822;10.152;2023-07-20T13:35:44;1.40;;;0.40;;
26512;SDS011;14186;53.822;10.152;2023-07-20T13:40:44;1.58;;;0.50;;
26512;SDS011;14186;53.822;10.152;2023-07-20T13:45:44;3.13;;;0.65;;
26512;SDS011;14186;53.822;10.152;2023-07-20T13:50:46;4.88;;;0.75;;
26512;SDS011;14186;53.822;10.152;2023-07-20T13:55:46;2.50;;;0.70;;
26512;SDS011;14186;53.822;10.152;2023-07-20T14:00:46;2.13;;;0.68;;
26512;SDS011;14186;53.822;10.152;2023-07-20T14:05:48;3.70;;;0.52;;
26512;SDS011;14186;53.822;10.152;2023-07-20T14:10:49;2.95;;;0.60;;
26512;SDS011;14186;53.822;10.152;2023-07-20T14:15:49;1.38;;;0.52;;
26512;SDS011;14186;53.822;10.152;2023-07-20T14:20:51;1.85;;;0.63;;
26512;SDS011;14186;53.822;10.152;2023-07-20T14:25:51;2.33;;;0.70;;
26512;SDS011;14186;53.822;10.152;2023-07-20T14:30:52;3.75;;;0.65;;
26512;SDS011;14186;53.822;10.152;2023-07-20T14:35:53;5.57;;;0.90;;
26512;SDS011;14186;53.822;10.152;2023-07-20T14:40:53;1.80;;;0.60;;
26512;SDS011;14186;53.822;10.152;2023-07-20T14:45:53;1.73;;;0.40;;
26512;SDS011;14186;53.822;10.152;2023-07-20T14:50:55;4.35;;;0.63;;
26512;SDS011;14186;53.822;10.152;2023-07-20T14:55:59;3.80;;;0.80;;
26512;SDS011;14186;53.822;10.152;2023-07-20T15:00:59;1.73;;;0.80;;
26512;SDS011;14186;53.822;10.152;2023-07-20T15:06:01;1.75;;;0.50;;
26512;SDS011;14186;53.822;10.152;2023-07-20T15:11:01;1.75;;;0.60;;
26512;SDS011;14186;53.822;10.152;2023-07-20T15:16:01;3.33;;;0.50;;
26512;SDS011;14186;53.822;10.152;2023-07-20T15:21:03;2.42;;;0.82;;
26512;SDS011;14186;53.822;10.152;2023-07-20T15:26:03;4.55;;;0.60;;
26512;SDS011;14186;53.822;10.152;2023-07-20T15:31:04;2.80;;;0.47;;
26512;SDS011;14186;53.822;10.152;2023-07-20T15:36:06;6.50;;;1.15;;
26512;SDS011;14186;53.822;10.152;2023-07-20T15:41:06;4.57;;;0.73;;
26512;SDS011;14186;53.822;10.152;2023-07-20T15:46:35;3.15;;;0.80;;
26512;SDS011;14186;53.822;10.152;2023-07-20T15:51:44;6.20;;;1.05;;
26512;SDS011;14186;53.822;10.152;2023-07-20T15:56:44;2.55;;;0.70;;
26512;SDS011;14186;53.822;10.152;2023-07-20T16:01:45;2.33;;;0.93;;
26512;SDS011;14186;53.822;10.152;2023-07-20T16:06:46;5.85;;;0.90;;
26512;SDS011;14186;53.822;10.152;2023-07-20T16:11:46;4.43;;;1.08;;
26512;SDS011;14186;53.822;10.152;2023-07-20T16:16:47;2.90;;;0.90;;
26512;SDS011;14186;53.822;10.152;2023-07-20T16:21:48;5.50;;;0.77;;
26512;SDS011;14186;53.822;10.152;2023-07-20T16:26:48;4.43;;;1.00;;
26512;SDS011;14186;53.822;10.152;2023-07-20T16:31:49;4.50;;;1.05;;
26512;SDS011;14186;53.822;10.152;2023-07-20T16:36:50;3.63;;;0.80;;
26512;SDS011;14186;53.822;10.152;2023-07-20T16:41:50;4.47;;;1.05;;
26512;SDS011;14186;53.822;10.152;2023-07-20T16:46:50;4.40;;;1.17;;
26512;SDS011;14186;53.822;10.152;2023-07-20T16:51:52;3.70;;;1.33;;
26512;SDS011;14186;53.822;10.152;2023-07-20T16:56:52;4.15;;;1.10;;
26512;SDS011;14186;53.822;10.152;2023-07-20T17:01:52;5.13;;;1.33;;
26512;SDS011;14186;53.822;10.152;2023-07-20T17:06:54;7.22;;;1.63;;
26512;SDS011;14186;53.822;10.152;2023-07-20T17:11:54;5.45;;;1.65;;
26512;SDS011;14186;53.822;10.152;2023-07-20T17:16:54;3.55;;;1.00;;
26512;SDS011;14186;53.822;10.152;2023-07-20T17:21:56;5.35;;;1.40;;
26512;SDS011;14186;53.822;10.152;2023-07-20T17:26:56;4.13;;;0.82;;
26512;SDS011;14186;53.822;10.152;2023-07-20T17:31:56;4.93;;;1.83;;
26512;SDS011;14186;53.822;10.152;2023-07-20T17:36:58;3.80;;;0.93;;
26512;SDS011;14186;53.822;10.152;2023-07-20T17:41:58;2.63;;;0.75;;
26512;SDS011;14186;53.822;10.152;2023-07-20T17:46:58;5.55;;;0.70;;
26512;SDS011;14186;53.822;10.152;2023-07-20T17:52:00;6.57;;;0.85;;
26512;SDS011;14186;53.822;10.152;2023-07-20T17:57:00;2.55;;;0.50;;
26512;SDS011;14186;53.822;10.152;2023-07-20T18:02:00;6.63;;;0.98;;
26512;SDS011;14186;53.822;10.152;2023-07-20T18:07:02;6.38;;;0.85;;
26512;SDS011;14186;53.822;10.152;2023-07-20T18:12:02;5.97;;;0.73;;
26512;SDS011;14186;53.822;10.152;2023-07-20T18:17:03;2.88;;;0.73;;
26512;SDS011;14186;53.822;10.152;2023-07-20T18:22:04;2.60;;;0.60;;
26512;SDS011;14186;53.822;10.152;2023-07-20T18:27:05;3.60;;;0.70;;
26512;SDS011;14186;53.822;10.152;2023-07-20T18:32:05;4.15;;;0.88;;
26512;SDS011;14186;53.822;10.152;2023-07-20T18:37:07;4.50;;;0.70;;
26512;SDS011;14186;53.822;10.152;2023-07-20T18:42:07;5.18;;;0.70;;
26512;SDS011;14186;53.822;10.152;2023-07-20T18:47:07;3.72;;;0.75;;
26512;SDS011;14186;53.822;10.152;2023-07-20T18:52:09;4.40;;;1.02;;
26512;SDS011;14186;53.822;10.152;2023-07-20T18:57:09;5.05;;;1.30;;
26512;SDS011;14186;53.822;10.152;2023-07-20T19:02:09;3.90;;;0.70;;
26512;SDS011;14186;53.822;10.152;2023-07-20T19:07:11;5.57;;;0.98;;
26512;SDS011;14186;53.822;10.152;2023-07-20T19:12:11;1.75;;;0.68;;
26512;SDS011;14186;53.822;10.152;2023-07-20T19:17:11;2.17;;;0.77;;
26512;SDS011;14186;53.822;10.152;2023-07-20T19:22:13;1.95;;;0.60;;
26512;SDS011;14186;53.822;10.152;2023-07-20T19:27:13;5.63;;;0.90;;
26512;SDS011;14186;53.822;10.152;2023-07-20T19:32:13;3.30;;;0.70;;
26512;SDS011;14186;53.822;10.152;2023-07-20T19:37:15;3.72;;;0.80;;
26512;SDS011;14186;53.822;10.152;2023-07-20T19:42:15;3.28;;;0.50;;
26512;SDS011;14186;53.822;10.152;2023-07-20T19:47:16;2.88;;;0.60;;
26512;SDS011;14186;53.822;10.152;2023-07-20T19:52:17;1.70;;;0.60;;
26512;SDS011;14186;53.822;10.152;2023-07-20T19:57:18;2.38;;;0.75;;
26512;SDS011;14186;53.822;10.152;2023-07-20T20:02:18;3.50;;;0.80;;
26512;SDS011;14186;53.822;10.152;2023-07-20T20:07:19;2.53;;;0.60;;
26512;SDS011;14186;53.822;10.152;2023-07-20T20:12:20;2.17;;;0.68;;
26512;SDS011;14186;53.822;10.152;2023-07-20T20:17:20;3.10;;;0.50;;
26512;SDS011;14186;53.822;10.152;2023-07-20T20:22:21;2.63;;;0.52;;
26512;SDS011;14186;53.822;10.152;2023-07-20T20:27:22;3.20;;;0.77;;
26512;SDS011;14186;53.822;10.152;2023-07-20T20:32:22;3.17;;;0.73;;
26512;SDS011;14186;53.822;10.152;2023-07-20T20:37:23;3.25;;;0.73;;
26512;SDS011;14186;53.822;10.152;2023-07-20T20:42:24;2.15;;;0.68;;
26512;SDS011;14186;53.822;10.152;2023-07-20T20:47:24;2.58;;;0.60;;
26512;SDS011;14186;53.822;10.152;2023-07-20T20:52:25;4.03;;;0.77;;
26512;SDS011;14186;53.822;10.152;2023-07-20T20:57:25;3.05;;;0.80;;
26512;SDS011;14186;53.822;10.152;2023-07-20T21:02:26;1.27;;;0.70;;
26512;SDS011;14186;53.822;10.152;2023-07-20T21:07:27;4.90;;;0.95;;
26512;SDS011;14186;53.822;10.152;2023-07-20T21:12:28;4.50;;;1.17;;
26512;SDS011;14186;53.822;10.152;2023-07-20T21:17:28;1.85;;;0.75;;
26512;SDS011;14186;53.822;10.152;2023-07-20T21:22:29;4.93;;;1.55;;
26512;SDS011;14186;53.822;10.152;2023-07-20T21:27:30;3.17;;;0.80;;
26512;SDS011;14186;53.822;10.152;2023-07-20T21:32:30;3.05;;;0.68;;
26512;SDS011;14186;53.822;10.152;2023-07-20T21:37:31;2.40;;;1.15;;
26512;SDS011;14186;53.822;10.152;2023-07-20T21:42:31;4.05;;;1.00;;
26512;SDS011;14186;53.822;10.152;2023-07-20T21:47:32;2.83;;;1.02;;
26512;SDS011;14186;53.822;10.152;2023-07-20T21:52:33;2.88;;;1.10;;
26512;SDS011;14186;53.822;10.152;2023-07-20T21:57:33;5.38;;;1.98;;
26512;SDS011;14186;53.822;10.152;2023-07-20T22:02:34;4.07;;;1.30;;
26512;SDS011;14186;53.822;10.152;2023-07-20T22:07:35;5.43;;;1.30;;
26512;SDS011;14186;53.822;10.152;2023-07-20T22:12:35;3.40;;;1.60;;
26512;SDS011;14186;53.822;10.152;2023-07-20T22:17:36;5.15;;;1.98;;
26512;SDS011;14186;53.822;10.152;2023-07-20T22:22:37;5.32;;;1.30;;
26512;SDS011;14186;53.822;10.152;2023-07-20T22:27:38;6.53;;;1.30;;
26512;SDS011;14186;53.822;10.152;2023-07-20T22:32:38;4.82;;;1.33;;
26512;SDS011;14186;53.822;10.152;2023-07-20T22:37:39;2.95;;;1.25;;
26512;SDS011;14186;53.822;10.152;2023-07-20T22:42:40;3.13;;;1.35;;
26512;SDS011;14186;53.822;10.152;2023-07-20T22:47:40;3.95;;;1.20;;
26512;SDS011;14186;53.822;10.152;2023-07-20T22:52:43;3.50;;;1.48;;
26512;SDS011;14186;53.822;10.152;2023-07-20T22:57:43;2.55;;;1.15;;
26512;SDS011;14186;53.822;10.152;2023-07-20T23:02:43;5.07;;;1.50;;
26512;SDS011;14186;53.822;10.152;2023-07-20T23:07:45;4.30;;;1.42;;
26512;SDS011;14186;53.822;10.152;2023-07-20T23:12:45;4.50;;;1.27;;
26512;SDS011;14186;53.822;10.152;2023-07-20T23:17:45;3.15;;;1.40;;
26512;SDS011;14186;53.822;10.152;2023-07-20T23:22:47;3.92;;;1.35;;
26512;SDS011;14186;53.822;10.152;2023-07-20T23:27:48;6.53;;;2.38;;
26512;SDS011;14186;53.822;10.152;2023-07-20T23:32:49;4.38;;;1.55;;
26512;SDS011;14186;53.822;10.152;2023-07-20T23:37:50;4.10;;;1.30;;
26512;SDS011;14186;53.822;10.152;2023-07-20T23:42:51;2.90;;;1.35;;
26512;SDS011;14186;53.822;10.152;2023-07-20T23:47:51;3.80;;;1.60;;
26512;SDS011;14186;53.822;10.152;2023-07-20T23:52:52;2.90;;;1.30;;
26512;SDS011;14186;53.822;10.152;2023-07-20T23:57:52;2.95;;;1.20;;
